Terminal Aerodrome Forecast
Issued by NWS Duluth, MN

Home | Current Version | Previous Version | Text Only | Print | Product List | Glossary On
Versions: 1 2 3 4 5 6 7 8 9 10 11 12 13 14 15 16 17 18 19 20 21 22 23
000
FTUS43 KDLH 061700
TAFDLH
TAF
KDLH 061739Z 0618/0718 27014KT P6SM SCT035
     FM070200 24008KT P6SM BKN070
     FM070500 23009KT P6SM -SN SCT030 BKN040 OVC070
      TEMPO 0705/0709 3SM -SN SCT015 BKN025 OVC040
     FM070900 28012KT P6SM BKN025 BKN040
     FM071300 32014G20KT P6SM SCT030 BKN040=

USA.gov is the U.S. government's official web portal to all federal, state and local government web resources and services.